createdAt,value
2023-05-12T00:00:12.894Z,11.67
2023-05-12T00:00:24.871Z,11.67
2023-05-12T00:00:36.760Z,11.65
2023-05-12T00:00:48.778Z,11.68
2023-05-12T00:01:00.512Z,11.68
2023-05-12T00:01:12.893Z,11.69
2023-05-12T00:01:24.808Z,11.68
2023-05-12T00:01:36.821Z,11.66
2023-05-12T00:01:48.806Z,11.69
2023-05-12T00:02:04.796Z,11.66
2023-05-12T00:02:52.735Z,11.69
2023-05-12T00:03:06.221Z,11.69
2023-05-12T00:03:22.112Z,11.68
2023-05-12T00:03:46.058Z,11.69
2023-05-12T00:03:59.158Z,11.69
2023-05-12T00:04:11.540Z,11.70
2023-05-12T00:04:23.774Z,11.69
2023-05-12T00:04:36.013Z,11.70
2023-05-12T00:04:52.932Z,11.69
2023-05-12T00:05:14.689Z,11.67
2023-05-12T00:05:32.119Z,11.69
2023-05-12T00:05:46.803Z,11.70
2023-05-12T00:06:00.609Z,11.69
2023-05-12T00:06:39.053Z,11.69
2023-05-12T00:06:50.911Z,11.70
2023-05-12T00:07:04.170Z,11.68
2023-05-12T00:07:18.245Z,11.66
2023-05-12T00:07:30.729Z,11.70
2023-05-12T00:07:45.101Z,11.68
2023-05-12T00:07:56.965Z,11.68
2023-05-12T00:08:08.901Z,11.69
2023-05-12T00:08:23.894Z,11.66
2023-05-12T00:08:35.948Z,11.68
2023-05-12T00:08:47.944Z,11.69
2023-05-12T00:08:59.881Z,11.66
2023-05-12T00:09:11.830Z,11.68
2023-05-12T00:09:23.722Z,11.68
2023-05-12T00:09:35.621Z,11.68
2023-05-12T00:09:55.105Z,11.67
2023-05-12T00:10:08.899Z,11.68
2023-05-12T00:10:22.226Z,11.65
2023-05-12T00:10:34.170Z,11.69
2023-05-12T00:10:46.089Z,11.67
2023-05-12T00:10:58.004Z,11.68
2023-05-12T00:11:09.997Z,11.68
2023-05-12T00:11:23.396Z,11.69
2023-05-12T00:11:37.692Z,11.67
2023-05-12T00:11:49.934Z,11.68
2023-05-12T00:12:02.489Z,11.66
2023-05-12T00:12:17.603Z,11.67
2023-05-12T00:12:29.488Z,11.67
2023-05-12T00:12:41.490Z,11.68
2023-05-12T00:12:53.595Z,11.67
2023-05-12T00:13:05.628Z,11.65
2023-05-12T00:13:17.630Z,11.67
2023-05-12T00:13:35.540Z,11.65
2023-05-12T00:13:48.617Z,11.63
2023-05-12T00:14:00.784Z,11.64
2023-05-12T00:14:12.646Z,11.64
2023-05-12T00:14:24.640Z,11.65
2023-05-12T00:14:36.930Z,11.67
2023-05-12T00:14:48.898Z,11.66
2023-05-12T00:15:01.192Z,11.67
2023-05-12T00:15:13.173Z,11.66
2023-05-12T00:15:25.098Z,11.66
2023-05-12T00:15:37.255Z,11.66
2023-05-12T00:15:49.469Z,11.66
2023-05-12T00:16:02.546Z,11.65
2023-05-12T00:16:16.647Z,11.66
2023-05-12T00:16:38.417Z,11.65
2023-05-12T00:16:51.603Z,11.66
2023-05-12T00:17:04.027Z,11.63
2023-05-12T00:17:15.951Z,11.66
2023-05-12T00:17:28.093Z,11.65
2023-05-12T00:17:40.152Z,11.66
2023-05-12T00:17:52.166Z,11.63
2023-05-12T00:18:09.715Z,11.66
2023-05-12T00:18:21.733Z,11.67
2023-05-12T00:18:33.668Z,11.67
2023-05-12T00:18:45.702Z,11.67
2023-05-12T00:18:57.925Z,11.67
2023-05-12T00:19:12.236Z,11.67
2023-05-12T00:19:26.912Z,11.68
2023-05-12T00:19:43.042Z,11.66
2023-05-12T00:19:55.089Z,11.66
2023-05-12T00:20:09.559Z,11.66
2023-05-12T00:20:22.073Z,11.65
2023-05-12T00:20:34.239Z,11.64
2023-05-12T00:20:46.069Z,11.68
2023-05-12T00:20:57.952Z,11.66
2023-05-12T00:21:11.214Z,11.65
2023-05-12T00:21:23.868Z,11.65
2023-05-12T00:21:36.279Z,11.67
2023-05-12T00:21:54.688Z,11.63
2023-05-12T00:22:42.746Z,11.68
2023-05-12T00:22:56.387Z,11.69
2023-05-12T00:23:08.377Z,11.68
2023-05-12T00:23:20.495Z,11.68
2023-05-12T00:23:38.932Z,11.65
2023-05-12T00:24:19.363Z,11.66
2023-05-12T00:24:31.289Z,11.69
2023-05-12T00:24:45.097Z,11.66
2023-05-12T00:24:58.204Z,11.69
2023-05-12T00:25:10.820Z,11.68
2023-05-12T00:25:23.080Z,11.67
2023-05-12T00:25:35.208Z,11.66
2023-05-12T00:25:47.026Z,11.67
2023-05-12T00:25:58.854Z,11.69
2023-05-12T00:26:10.728Z,11.69
2023-05-12T00:26:22.982Z,11.68
2023-05-12T00:26:35.001Z,11.66
2023-05-12T00:26:47.078Z,11.68
2023-05-12T00:27:00.318Z,11.70
2023-05-12T00:27:15.630Z,11.70
2023-05-12T00:27:28.199Z,11.67
2023-05-12T00:27:43.627Z,11.70
2023-05-12T00:27:55.783Z,11.70
2023-05-12T00:28:12.588Z,11.70
2023-05-12T00:28:36.345Z,11.70
2023-05-12T00:29:08.672Z,11.72
2023-05-12T00:29:22.724Z,11.71
2023-05-12T00:29:35.020Z,11.71
2023-05-12T00:30:07.988Z,11.72
2023-05-12T00:30:20.641Z,11.70
2023-05-12T00:30:40.510Z,11.67
2023-05-12T00:30:53.055Z,11.68
2023-05-12T00:31:06.370Z,11.68
2023-05-12T00:31:21.215Z,11.68
2023-05-12T00:32:32.448Z,11.70
2023-05-12T00:32:45.686Z,11.68
2023-05-12T00:32:58.169Z,11.69
2023-05-12T00:33:10.597Z,11.66
2023-05-12T00:33:49.624Z,11.68
2023-05-12T00:34:01.736Z,11.66
2023-05-12T00:34:13.776Z,11.65
2023-05-12T00:34:27.441Z,11.68
2023-05-12T00:34:39.586Z,11.68
2023-05-12T00:34:55.884Z,11.68
2023-05-12T00:35:10.531Z,11.67
2023-05-12T00:35:22.740Z,11.67
2023-05-12T00:35:34.705Z,11.66
2023-05-12T00:35:46.632Z,11.61
2023-05-12T00:35:59.256Z,11.67
2023-05-12T00:36:11.308Z,11.69
2023-05-12T00:36:23.354Z,11.67
2023-05-12T00:36:35.425Z,11.66
2023-05-12T00:36:47.629Z,11.62
2023-05-12T00:36:59.802Z,11.66
2023-05-12T00:37:11.809Z,11.62
2023-05-12T00:37:23.860Z,11.66
2023-05-12T00:37:35.912Z,11.65
2023-05-12T00:37:47.731Z,11.67
2023-05-12T00:37:59.868Z,11.62
2023-05-12T00:38:11.888Z,11.64
2023-05-12T00:38:23.903Z,11.66
2023-05-12T00:38:36.037Z,11.64
2023-05-12T00:38:48.124Z,11.63
2023-05-12T00:39:00.306Z,11.65
2023-05-12T00:39:12.335Z,11.65
2023-05-12T00:39:24.417Z,11.63
2023-05-12T00:39:36.426Z,11.64
2023-05-12T00:39:48.329Z,11.62
2023-05-12T00:40:00.563Z,11.64
2023-05-12T00:40:12.719Z,11.61
2023-05-12T00:40:24.989Z,11.58
2023-05-12T00:40:37.133Z,11.57
2023-05-12T00:40:49.614Z,11.60
2023-05-12T00:41:01.650Z,11.61
2023-05-12T00:41:13.984Z,11.61
2023-05-12T00:41:26.172Z,11.62
2023-05-12T00:41:38.216Z,11.59
2023-05-12T00:41:55.846Z,11.59
2023-05-12T00:42:08.308Z,11.60
2023-05-12T00:42:20.297Z,11.60
2023-05-12T00:42:34.238Z,11.57
2023-05-12T00:42:46.210Z,11.56
2023-05-12T00:42:58.664Z,11.59
2023-05-12T00:43:11.092Z,11.58
2023-05-12T00:43:23.102Z,11.56
2023-05-12T00:43:35.301Z,11.52
2023-05-12T00:43:47.143Z,11.57
2023-05-12T00:43:59.327Z,11.50
2023-05-12T00:44:11.404Z,11.55
2023-05-12T00:44:23.687Z,11.54
2023-05-12T00:44:36.285Z,11.56
2023-05-12T00:44:48.468Z,11.56
2023-05-12T00:45:00.452Z,11.52
2023-05-12T00:45:12.733Z,11.51
2023-05-12T00:45:24.760Z,11.52
2023-05-12T00:45:37.106Z,11.52
2023-05-12T00:45:49.815Z,11.51
2023-05-12T00:46:04.862Z,11.53
2023-05-12T00:46:18.144Z,11.51
2023-05-12T00:46:30.407Z,11.49
2023-05-12T00:46:42.436Z,11.51
2023-05-12T00:46:54.732Z,11.44
2023-05-12T00:47:07.134Z,11.49
2023-05-12T00:47:19.247Z,11.46
2023-05-12T00:47:31.630Z,11.47
2023-05-12T00:47:45.566Z,11.48
2023-05-12T00:47:58.375Z,11.49
2023-05-12T00:48:10.683Z,11.48
2023-05-12T00:48:22.790Z,11.48
2023-05-12T00:48:36.202Z,11.46
2023-05-12T00:48:48.867Z,11.47
2023-05-12T00:49:00.991Z,11.46
2023-05-12T00:49:13.705Z,11.45
2023-05-12T00:49:26.436Z,11.46
2023-05-12T00:49:39.283Z,11.46
2023-05-12T00:49:52.148Z,11.46
2023-05-12T00:50:05.618Z,11.46
2023-05-12T00:50:19.583Z,11.47
2023-05-12T00:50:31.817Z,11.46
2023-05-12T00:50:43.938Z,11.47
2023-05-12T00:50:57.760Z,11.47
2023-05-12T00:51:10.155Z,11.45
2023-05-12T00:51:22.310Z,11.48
2023-05-12T00:51:34.570Z,11.45
2023-05-12T00:51:46.684Z,11.47
2023-05-12T00:51:59.773Z,11.44
2023-05-12T00:52:11.802Z,11.47
2023-05-12T00:52:24.377Z,11.46
2023-05-12T00:52:36.662Z,11.47
2023-05-12T00:52:50.063Z,11.46
2023-05-12T00:53:06.855Z,11.46
2023-05-12T00:53:19.249Z,11.45
2023-05-12T00:53:45.133Z,11.45
2023-05-12T00:54:02.372Z,11.42
2023-05-12T00:54:14.465Z,11.38
2023-05-12T00:54:27.345Z,11.38
2023-05-12T00:54:42.530Z,11.45
2023-05-12T00:54:56.528Z,11.37
2023-05-12T00:55:09.804Z,11.42
2023-05-12T00:55:24.891Z,11.43
2023-05-12T00:56:03.911Z,11.45
2023-05-12T00:56:18.357Z,11.47
2023-05-12T00:56:57.423Z,11.46
2023-05-12T00:57:10.233Z,11.45
2023-05-12T00:57:23.206Z,11.46
2023-05-12T00:57:35.567Z,11.44
2023-05-12T00:57:48.193Z,11.44
2023-05-12T00:58:01.403Z,11.43
2023-05-12T00:58:14.751Z,11.41
2023-05-12T00:58:29.323Z,11.41
2023-05-12T00:58:51.038Z,11.44
2023-05-12T00:59:07.189Z,11.41
2023-05-12T00:59:22.021Z,11.43
2023-05-12T00:59:34.347Z,11.44
2023-05-12T00:59:47.565Z,11.42
2023-05-12T01:00:00.586Z,11.44
2023-05-12T01:00:19.385Z,11.38
2023-05-12T01:00:40.316Z,11.43
2023-05-12T01:00:52.913Z,11.41
2023-05-12T01:01:07.754Z,11.37
2023-05-12T01:01:20.090Z,11.41
2023-05-12T01:01:36.624Z,11.38
2023-05-12T01:01:50.528Z,11.39
2023-05-12T01:02:03.072Z,11.39
2023-05-12T01:02:23.000Z,11.40
2023-05-12T01:02:36.528Z,11.38
2023-05-12T01:02:49.336Z,11.36
2023-05-12T01:03:01.641Z,11.38
2023-05-12T01:03:17.690Z,11.39
2023-05-12T01:03:30.884Z,11.40
2023-05-12T01:03:46.650Z,11.37
2023-05-12T01:04:01.513Z,11.39
2023-05-12T01:04:14.012Z,11.39
2023-05-12T01:04:26.204Z,11.39
2023-05-12T01:04:39.919Z,11.39
2023-05-12T01:04:53.125Z,11.39
2023-05-12T01:05:09.105Z,11.43
2023-05-12T01:05:23.469Z,11.38
2023-05-12T01:05:41.982Z,11.36
2023-05-12T01:06:07.300Z,11.40
2023-05-12T01:06:26.619Z,11.41
2023-05-12T01:06:45.765Z,11.41
2023-05-12T01:07:03.504Z,11.37
2023-05-12T01:07:19.586Z,11.39
2023-05-12T01:08:00.526Z,11.35
2023-05-12T01:08:13.443Z,11.42
2023-05-12T01:08:29.387Z,11.41
2023-05-12T01:08:42.626Z,11.37
2023-05-12T01:08:56.431Z,11.42
2023-05-12T01:09:09.262Z,11.38
2023-05-12T01:09:22.145Z,11.37
2023-05-12T01:09:34.523Z,11.41
2023-05-12T01:09:47.325Z,11.41
2023-05-12T01:09:59.915Z,11.40
2023-05-12T01:10:24.873Z,11.41
2023-05-12T01:10:37.604Z,11.38
2023-05-12T01:10:50.000Z,11.41
2023-05-12T01:11:03.259Z,11.38
2023-05-12T01:11:15.076Z,11.40
2023-05-12T01:11:27.269Z,11.39
2023-05-12T01:11:39.091Z,11.40
2023-05-12T01:11:52.053Z,11.38
2023-05-12T01:12:05.625Z,11.35
2023-05-12T01:12:18.718Z,11.36
2023-05-12T01:12:30.750Z,11.37
2023-05-12T01:12:45.549Z,11.37
2023-05-12T01:12:57.570Z,11.39
2023-05-12T01:13:09.552Z,11.39
2023-05-12T01:13:21.866Z,11.39
2023-05-12T01:13:34.426Z,11.37
2023-05-12T01:13:46.448Z,11.35
2023-05-12T01:13:59.349Z,11.34
2023-05-12T01:14:13.795Z,11.39
2023-05-12T01:14:26.570Z,11.38
2023-05-12T01:14:39.732Z,11.41
2023-05-12T01:14:53.450Z,11.41
2023-05-12T01:15:06.848Z,11.37
2023-05-12T01:15:19.211Z,11.41
2023-05-12T01:15:32.828Z,11.37
2023-05-12T01:15:47.432Z,11.41
2023-05-12T01:16:02.790Z,11.42
2023-05-12T01:16:20.907Z,11.42
2023-05-12T01:16:39.509Z,11.43
2023-05-12T01:16:53.726Z,11.44
2023-05-12T01:17:12.273Z,11.44
2023-05-12T01:17:30.529Z,11.45
2023-05-12T01:17:47.616Z,11.46
2023-05-12T01:18:02.403Z,11.46
2023-05-12T01:18:18.334Z,11.44
2023-05-12T01:18:34.404Z,11.44
2023-05-12T01:18:47.975Z,11.45
2023-05-12T01:19:02.580Z,11.45
2023-05-12T01:19:32.754Z,11.45
2023-05-12T01:19:49.478Z,11.48
2023-05-12T01:20:03.490Z,11.47
2023-05-12T01:20:18.909Z,11.48
2023-05-12T01:20:33.483Z,11.47
2023-05-12T01:20:46.995Z,11.47
2023-05-12T01:21:00.559Z,11.47
2023-05-12T01:21:12.857Z,11.49
2023-05-12T01:21:25.406Z,11.47
2023-05-12T01:21:40.839Z,11.48
2023-05-12T01:21:53.384Z,11.49
2023-05-12T01:22:07.066Z,11.49
2023-05-12T01:22:19.713Z,11.49
2023-05-12T01:22:32.758Z,11.49
2023-05-12T01:22:48.490Z,11.49
2023-05-12T01:23:01.830Z,11.49
2023-05-12T01:23:18.546Z,11.50
2023-05-12T01:23:36.595Z,11.51
2023-05-12T01:23:56.597Z,11.51
2023-05-12T01:24:10.980Z,11.48
2023-05-12T01:24:27.151Z,11.52
2023-05-12T01:24:45.891Z,11.52
2023-05-12T01:25:01.598Z,11.50
2023-05-12T01:25:17.266Z,11.52
2023-05-12T01:25:33.008Z,11.53
2023-05-12T01:25:50.119Z,11.50
2023-05-12T01:26:06.730Z,11.52
2023-05-12T01:26:28.164Z,11.53
2023-05-12T01:26:40.179Z,11.52
2023-05-12T01:26:52.352Z,11.52
2023-05-12T01:27:07.964Z,11.50
2023-05-12T01:27:21.556Z,11.53
2023-05-12T01:27:34.696Z,11.52
2023-05-12T01:27:48.492Z,11.50
2023-05-12T01:28:02.621Z,11.51
2023-05-12T01:28:16.732Z,11.51
2023-05-12T01:28:28.959Z,11.45
2023-05-12T01:28:44.601Z,11.49
2023-05-12T01:28:57.599Z,11.52
2023-05-12T01:29:12.048Z,11.53
2023-05-12T01:29:24.789Z,11.52
2023-05-12T01:29:38.387Z,11.50
2023-05-12T01:29:52.374Z,11.47
2023-05-12T01:30:06.426Z,11.48
2023-05-12T01:30:22.509Z,11.48
2023-05-12T01:30:44.831Z,11.52
2023-05-12T01:31:00.365Z,11.52
2023-05-12T01:31:18.321Z,11.54
2023-05-12T01:31:33.116Z,11.52
2023-05-12T01:31:45.608Z,11.54
2023-05-12T01:31:57.965Z,11.54
2023-05-12T01:32:13.195Z,11.53
2023-05-12T01:32:28.614Z,11.52
2023-05-12T01:32:40.812Z,11.52
2023-05-12T01:32:54.130Z,11.52
2023-05-12T01:33:06.829Z,11.53
2023-05-12T01:33:19.299Z,11.53
2023-05-12T01:33:32.743Z,11.49
2023-05-12T01:33:44.866Z,11.52
2023-05-12T01:34:05.168Z,11.52
2023-05-12T01:34:17.927Z,11.51
2023-05-12T01:34:42.722Z,11.47
2023-05-12T01:34:57.511Z,11.49
2023-05-12T01:35:10.646Z,11.48
2023-05-12T01:35:26.420Z,11.49
2023-05-12T01:35:45.593Z,11.47
2023-05-12T01:35:57.479Z,11.48
2023-05-12T01:36:09.636Z,11.48
2023-05-12T01:36:22.269Z,11.48
2023-05-12T01:36:34.203Z,11.46
2023-05-12T01:36:46.171Z,11.49
2023-05-12T01:36:58.289Z,11.46
2023-05-12T01:37:10.560Z,11.49
2023-05-12T01:37:23.071Z,11.46
2023-05-12T01:37:35.038Z,11.50
2023-05-12T01:37:49.344Z,11.52
2023-05-12T01:38:01.691Z,11.49
2023-05-12T01:38:14.427Z,11.47
2023-05-12T01:38:26.595Z,11.47
2023-05-12T01:38:38.506Z,11.50
2023-05-12T01:38:51.285Z,11.49
2023-05-12T01:39:03.333Z,11.47
2023-05-12T01:39:15.311Z,11.42
2023-05-12T01:39:27.808Z,11.50
2023-05-12T01:39:39.981Z,11.51
2023-05-12T01:39:53.630Z,11.47
2023-05-12T01:40:07.156Z,11.51
2023-05-12T01:40:19.333Z,11.49
2023-05-12T01:40:31.740Z,11.49
2023-05-12T01:40:44.335Z,11.49
2023-05-12T01:40:56.971Z,11.50
2023-05-12T01:41:10.481Z,11.48
2023-05-12T01:41:22.492Z,11.48
2023-05-12T01:41:34.963Z,11.47
2023-05-12T01:41:47.109Z,11.48
2023-05-12T01:41:59.576Z,11.48
2023-05-12T01:42:11.666Z,11.49
2023-05-12T01:42:23.851Z,11.46
2023-05-12T01:42:40.266Z,11.48
2023-05-12T01:42:55.018Z,11.47
2023-05-12T01:43:07.380Z,11.45
2023-05-12T01:43:21.961Z,11.45
2023-05-12T01:43:34.031Z,11.48
2023-05-12T01:43:46.432Z,11.48
2023-05-12T01:43:59.928Z,11.47
2023-05-12T01:44:12.358Z,11.46
2023-05-12T01:44:25.237Z,11.47
2023-05-12T01:44:37.372Z,11.48
2023-05-12T01:44:49.346Z,11.47
2023-05-12T01:45:01.478Z,11.47
2023-05-12T01:45:13.945Z,11.43
2023-05-12T01:45:26.036Z,11.45
2023-05-12T01:45:38.781Z,11.46
2023-05-12T01:45:51.163Z,11.46
2023-05-12T01:46:03.205Z,11.42
2023-05-12T01:46:15.736Z,11.45
2023-05-12T01:46:29.472Z,11.46
2023-05-12T01:46:44.735Z,11.45
2023-05-12T01:46:57.438Z,11.45
2023-05-12T01:47:09.604Z,11.44
2023-05-12T01:47:23.317Z,11.44
2023-05-12T01:47:42.480Z,11.44
2023-05-12T01:47:55.162Z,11.45
2023-05-12T01:48:07.388Z,11.47
2023-05-12T01:48:19.324Z,11.47
2023-05-12T01:48:31.750Z,11.44
2023-05-12T01:48:44.549Z,11.45
2023-05-12T01:48:56.757Z,11.43
2023-05-12T01:49:08.721Z,11.45
2023-05-12T01:49:20.946Z,11.44
2023-05-12T01:49:33.915Z,11.44
2023-05-12T01:49:46.025Z,11.46
2023-05-12T01:50:00.164Z,11.44
2023-05-12T01:50:12.073Z,11.46
2023-05-12T01:50:25.278Z,11.42
2023-05-12T01:50:37.317Z,11.45
2023-05-12T01:50:53.515Z,11.45
2023-05-12T01:51:07.792Z,11.45
2023-05-12T01:51:19.816Z,11.45
2023-05-12T01:51:32.065Z,11.45
2023-05-12T01:51:44.853Z,11.45
2023-05-12T01:51:56.966Z,11.47
2023-05-12T01:52:14.687Z,11.47
2023-05-12T01:52:27.047Z,11.42
2023-05-12T01:52:41.225Z,11.45
2023-05-12T01:52:57.809Z,11.46
2023-05-12T01:53:09.857Z,11.46
2023-05-12T01:53:21.753Z,11.45
2023-05-12T01:53:34.061Z,11.45
2023-05-12T01:53:46.040Z,11.44
2023-05-12T01:53:58.389Z,11.45
2023-05-12T01:54:13.920Z,11.43
2023-05-12T01:54:26.045Z,11.44
2023-05-12T01:54:38.147Z,11.43
2023-05-12T01:54:50.198Z,11.44
2023-05-12T01:55:05.253Z,11.45
2023-05-12T01:55:23.103Z,11.41
2023-05-12T01:55:38.268Z,11.44
2023-05-12T01:55:50.207Z,11.44
2023-05-12T01:56:02.830Z,11.44
2023-05-12T01:56:17.485Z,11.41
2023-05-12T01:56:35.175Z,11.42
2023-05-12T01:56:47.108Z,11.40
2023-05-12T01:56:59.534Z,11.41
2023-05-12T01:57:11.514Z,11.39
2023-05-12T01:57:24.805Z,11.39
2023-05-12T01:57:40.374Z,11.38
2023-05-12T01:57:52.529Z,11.38
2023-05-12T01:58:05.264Z,11.38
2023-05-12T01:58:17.576Z,11.36
2023-05-12T01:58:32.747Z,11.35
2023-05-12T01:58:45.585Z,11.36
2023-05-12T01:58:57.847Z,11.36
2023-05-12T01:59:10.814Z,11.35
2023-05-12T01:59:24.192Z,11.35
2023-05-12T01:59:37.279Z,11.36
2023-05-12T01:59:51.163Z,11.34
2023-05-12T02:00:04.158Z,11.34
2023-05-12T02:00:25.184Z,11.34
2023-05-12T02:00:40.467Z,11.32
2023-05-12T02:00:58.431Z,11.29
2023-05-12T02:01:10.471Z,11.30
2023-05-12T02:01:22.319Z,11.32
2023-05-12T02:01:34.304Z,11.30
2023-05-12T02:01:46.468Z,11.30
2023-05-12T02:02:03.686Z,11.30
2023-05-12T02:02:16.891Z,11.25
2023-05-12T02:02:28.871Z,11.30
2023-05-12T02:02:45.706Z,11.29
2023-05-12T02:02:58.530Z,11.29
2023-05-12T02:03:10.631Z,11.28
2023-05-12T02:03:23.056Z,11.27
2023-05-12T02:03:35.164Z,11.26
2023-05-12T02:03:47.144Z,11.28
2023-05-12T02:03:59.410Z,11.29
2023-05-12T02:04:12.765Z,11.29
2023-05-12T02:04:25.347Z,11.29
2023-05-12T02:04:37.700Z,11.30
2023-05-12T02:04:49.861Z,11.28
2023-05-12T02:05:01.866Z,11.28
2023-05-12T02:05:13.724Z,11.27
2023-05-12T02:05:28.316Z,11.28
2023-05-12T02:05:42.857Z,11.28
2023-05-12T02:05:54.677Z,11.27
2023-05-12T02:06:06.615Z,11.29
2023-05-12T02:06:18.547Z,11.26
2023-05-12T02:06:30.905Z,11.28
2023-05-12T02:06:42.911Z,11.26
2023-05-12T02:06:55.004Z,11.27
2023-05-12T02:07:06.971Z,11.27
2023-05-12T02:07:19.832Z,11.27
2023-05-12T02:07:32.023Z,11.26
2023-05-12T02:07:46.086Z,11.27
2023-05-12T02:07:58.482Z,11.26
2023-05-12T02:08:10.711Z,11.28
2023-05-12T02:08:22.724Z,11.26
2023-05-12T02:08:34.896Z,11.25
2023-05-12T02:08:46.781Z,11.25
2023-05-12T02:08:58.957Z,11.26
2023-05-12T02:09:10.885Z,11.25
2023-05-12T02:09:23.085Z,11.25
2023-05-12T02:09:36.126Z,11.25
2023-05-12T02:09:48.560Z,11.25
2023-05-12T02:10:01.074Z,11.25
2023-05-12T02:10:13.084Z,11.26
2023-05-12T02:10:25.031Z,11.24
2023-05-12T02:10:36.912Z,11.25
2023-05-12T02:10:49.215Z,11.20
2023-05-12T02:11:09.978Z,11.22
2023-05-12T02:11:24.167Z,11.22
2023-05-12T02:11:36.034Z,11.23
2023-05-12T02:11:48.069Z,11.23
2023-05-12T02:12:00.127Z,11.23
2023-05-12T02:12:11.995Z,11.23
2023-05-12T02:12:24.112Z,11.22
2023-05-12T02:12:36.837Z,11.22
2023-05-12T02:12:49.044Z,11.21
2023-05-12T02:13:01.333Z,11.24
2023-05-12T02:13:14.784Z,11.21
2023-05-12T02:13:26.800Z,11.22
2023-05-12T02:13:38.953Z,11.23
2023-05-12T02:13:51.215Z,11.21
2023-05-12T02:14:03.444Z,11.19
2023-05-12T02:14:16.248Z,11.18
2023-05-12T02:14:28.238Z,11.21
2023-05-12T02:14:40.819Z,11.19
2023-05-12T02:14:53.989Z,11.21
2023-05-12T02:15:11.306Z,11.19
2023-05-12T02:15:28.195Z,11.19
2023-05-12T02:15:41.225Z,11.18
2023-05-12T02:15:53.366Z,11.20
2023-05-12T02:16:11.227Z,11.20
2023-05-12T02:16:25.902Z,11.20
2023-05-12T02:16:38.282Z,11.20
2023-05-12T02:17:18.832Z,11.20
2023-05-12T02:17:32.699Z,11.20
2023-05-12T02:17:48.744Z,11.18
2023-05-12T02:18:02.819Z,11.18
2023-05-12T02:18:17.429Z,11.18
2023-05-12T02:18:35.865Z,11.15
2023-05-12T02:18:50.961Z,11.14
2023-05-12T02:19:03.212Z,11.19
2023-05-12T02:19:17.983Z,11.14
2023-05-12T02:19:29.889Z,11.20
2023-05-12T02:19:44.334Z,11.19
2023-05-12T02:19:59.248Z,11.20
2023-05-12T02:21:05.541Z,11.17
2023-05-12T02:21:20.004Z,11.19
2023-05-12T02:21:46.048Z,11.20
2023-05-12T02:22:29.136Z,11.13
2023-05-12T02:22:56.117Z,11.15
2023-05-12T02:23:10.881Z,11.15
2023-05-12T02:23:23.197Z,11.15
2023-05-12T02:24:05.311Z,11.13
2023-05-12T02:24:21.692Z,11.18
2023-05-12T02:24:39.426Z,11.20
2023-05-12T02:24:53.119Z,11.21
2023-05-12T02:25:06.810Z,11.18
2023-05-12T02:25:19.888Z,11.19
2023-05-12T02:25:32.803Z,11.17
2023-05-12T02:25:46.304Z,11.20
2023-05-12T02:25:58.632Z,11.18
2023-05-12T02:26:12.873Z,11.20
2023-05-12T02:26:46.626Z,11.19
2023-05-12T02:26:59.643Z,11.14
2023-05-12T02:27:48.386Z,11.14
2023-05-12T02:28:02.648Z,11.17
2023-05-12T02:28:17.339Z,11.17
2023-05-12T02:28:38.951Z,11.13
2023-05-12T02:29:04.698Z,11.13
2023-05-12T02:29:27.622Z,11.19
2023-05-12T02:29:52.212Z,11.16
2023-05-12T02:30:11.738Z,11.13
2023-05-12T02:30:34.137Z,11.16
2023-05-12T02:30:53.509Z,11.14
2023-05-12T02:31:05.851Z,11.17
2023-05-12T02:31:22.701Z,11.18
2023-05-12T02:31:42.382Z,11.13
2023-05-12T02:32:02.479Z,11.16
2023-05-12T02:32:19.348Z,11.16
2023-05-12T02:32:38.895Z,11.12
2023-05-12T02:32:56.739Z,11.10
2023-05-12T02:33:11.283Z,11.16
2023-05-12T02:33:23.550Z,11.16
2023-05-12T02:33:38.223Z,11.14
2023-05-12T02:33:50.834Z,11.15
2023-05-12T02:34:05.760Z,11.18
2023-05-12T02:34:21.316Z,11.17
2023-05-12T02:34:33.656Z,11.13
2023-05-12T02:34:46.338Z,11.13
2023-05-12T02:35:00.811Z,11.18
2023-05-12T02:35:13.095Z,11.17
2023-05-12T02:35:26.225Z,11.17
2023-05-12T02:35:38.260Z,11.16
2023-05-12T02:35:50.352Z,11.10
2023-05-12T02:36:02.339Z,11.14
2023-05-12T02:36:14.404Z,11.12
2023-05-12T02:36:28.879Z,11.16
2023-05-12T02:36:40.961Z,11.15
2023-05-12T02:36:53.018Z,11.18
2023-05-12T02:37:05.214Z,11.19
2023-05-12T02:37:17.042Z,11.17
2023-05-12T02:37:29.750Z,11.19
2023-05-12T02:37:41.701Z,11.18
2023-05-12T02:37:53.972Z,11.16
2023-05-12T02:38:06.089Z,11.19
2023-05-12T02:38:18.369Z,11.19
2023-05-12T02:38:30.310Z,11.19
2023-05-12T02:38:42.275Z,11.18
2023-05-12T02:38:54.774Z,11.17
2023-05-12T02:39:06.865Z,11.19
2023-05-12T02:39:18.929Z,11.19
2023-05-12T02:39:30.769Z,11.19
2023-05-12T02:39:42.707Z,11.20
2023-05-12T02:39:54.579Z,11.19
2023-05-12T02:40:07.904Z,11.19
2023-05-12T02:40:20.074Z,11.21
2023-05-12T02:40:32.081Z,11.20
2023-05-12T02:40:44.556Z,11.20
2023-05-12T02:40:56.419Z,11.21
2023-05-12T02:41:08.721Z,11.21
2023-05-12T02:41:20.639Z,11.19
2023-05-12T02:41:34.151Z,11.20
2023-05-12T02:41:46.050Z,11.21
2023-05-12T02:41:58.320Z,11.20
2023-05-12T02:42:10.150Z,11.22
2023-05-12T02:42:22.049Z,11.20
2023-05-12T02:42:34.118Z,11.22
2023-05-12T02:42:45.951Z,11.21
2023-05-12T02:42:57.976Z,11.20
2023-05-12T02:43:10.312Z,11.22
2023-05-12T02:43:22.208Z,11.21
2023-05-12T02:43:34.052Z,11.21
2023-05-12T02:43:45.866Z,11.20
2023-05-12T02:43:57.787Z,11.20
2023-05-12T02:44:09.988Z,11.21
2023-05-12T02:44:21.960Z,11.20
2023-05-12T02:44:34.550Z,11.20
2023-05-12T02:44:46.481Z,11.20
2023-05-12T02:44:58.355Z,11.20
2023-05-12T02:45:11.253Z,11.21
2023-05-12T02:45:24.157Z,11.20
2023-05-12T02:45:36.222Z,11.22
2023-05-12T02:45:48.159Z,11.22
2023-05-12T02:46:00.021Z,11.21
2023-05-12T02:46:12.522Z,11.20
2023-05-12T02:46:25.052Z,11.21
2023-05-12T02:46:37.244Z,11.19
2023-05-12T02:46:49.043Z,11.20
2023-05-12T02:47:00.862Z,11.21
2023-05-12T02:47:12.753Z,11.21
2023-05-12T02:47:24.944Z,11.21
2023-05-12T02:47:36.838Z,11.21
2023-05-12T02:47:48.848Z,11.21
2023-05-12T02:48:00.751Z,11.21
2023-05-12T02:48:12.708Z,11.21
2023-05-12T02:48:25.049Z,11.20
2023-05-12T02:48:38.221Z,11.20
2023-05-12T02:48:50.242Z,11.21
2023-05-12T02:49:04.004Z,11.21
2023-05-12T02:49:15.892Z,11.20
2023-05-12T02:49:28.067Z,11.20
2023-05-12T02:49:40.168Z,11.21
2023-05-12T02:49:52.438Z,11.21
2023-05-12T02:50:05.201Z,11.20
2023-05-12T02:50:17.774Z,11.18
2023-05-12T02:50:29.657Z,11.20
2023-05-12T02:50:41.879Z,11.18
2023-05-12T02:50:53.836Z,11.20
2023-05-12T02:51:05.817Z,11.20
2023-05-12T02:51:17.696Z,11.20
2023-05-12T02:51:30.038Z,11.20
2023-05-12T02:51:41.907Z,11.19
2023-05-12T02:51:53.681Z,11.19
2023-05-12T02:52:06.262Z,11.19
2023-05-12T02:52:18.149Z,11.19
2023-05-12T02:52:29.989Z,11.17
2023-05-12T02:52:42.231Z,11.17
2023-05-12T02:52:54.704Z,11.17
2023-05-12T02:53:06.656Z,11.15
2023-05-12T02:53:23.358Z,11.17
2023-05-12T02:53:35.455Z,11.16
2023-05-12T02:53:47.406Z,11.15
2023-05-12T02:53:59.441Z,11.16
2023-05-12T02:54:11.289Z,11.15
2023-05-12T02:54:23.226Z,11.15
2023-05-12T02:54:35.293Z,11.14
2023-05-12T02:54:49.971Z,11.10
2023-05-12T02:55:01.980Z,11.10
2023-05-12T02:55:14.110Z,11.13
2023-05-12T02:55:25.867Z,11.12
2023-05-12T02:55:37.841Z,11.14
2023-05-12T02:55:49.813Z,11.14
2023-05-12T02:56:02.163Z,11.14
2023-05-12T02:56:14.050Z,11.12
2023-05-12T02:56:25.950Z,11.12
2023-05-12T02:56:39.581Z,11.13
2023-05-12T02:56:51.474Z,11.12
2023-05-12T02:57:05.502Z,11.11
2023-05-12T02:57:17.632Z,11.12
2023-05-12T02:57:29.672Z,11.09
2023-05-12T02:57:41.750Z,11.10
2023-05-12T02:57:56.754Z,11.10
2023-05-12T02:58:08.993Z,11.08
2023-05-12T02:58:21.129Z,11.09
2023-05-12T02:58:33.309Z,11.08
2023-05-12T02:58:45.240Z,11.10
2023-05-12T02:58:57.180Z,11.09
2023-05-12T02:59:09.219Z,11.07
2023-05-12T02:59:21.288Z,11.08
2023-05-12T02:59:33.211Z,11.08
2023-05-12T02:59:45.218Z,11.07
2023-05-12T02:59:57.006Z,11.08
2023-05-12T03:00:09.569Z,11.07
2023-05-12T03:00:24.512Z,11.08
2023-05-12T03:00:36.420Z,11.07
2023-05-12T03:00:54.130Z,11.08
2023-05-12T03:01:12.281Z,11.08
2023-05-12T03:01:26.009Z,11.07
2023-05-12T03:01:38.216Z,11.06
2023-05-12T03:01:50.104Z,11.06
2023-05-12T03:02:02.082Z,11.06
2023-05-12T03:02:14.220Z,11.04
2023-05-12T03:02:26.364Z,11.06
2023-05-12T03:02:39.777Z,11.06
2023-05-12T03:02:56.373Z,11.07
2023-05-12T03:03:08.677Z,11.06